Corozal, Belize
Current Conditions -  °F | °C
As of 11:40 AM on Sunday 25 Jan 2015 (Local Time) from MMCM Reporting Station
Broken Clouds Broken Clouds  
Wind Chill: 23°   Ceiling: 30000
Heat Index: 23°   Visibility: 7mi
Dew Point: 15°   Wind: 10mph
Humidity: 61%   Direction: 330°NNW
Pressure: 30.06"   Gusts: NA
Location:  18.4°N, 88.39°W
Report Text: MMCM 251740Z 33009KT 7SM BKN300 23/15 A3006 RMK SLP181 5//// 960 8/009 RTS
Loading
Personal Weather Stations






























Interactive Weather Map New forecast layout! Learn more

10-Day Weather Forecast

Advertisements
Track Severe Weather on mobile